Time;durP1;ratioP1;P1;durP2;ratioP2;P2;SDS_P1;SDS_P2;PMS_P1;PMS_P2;Temp;Humidity;BMP_temperature;BMP_pressure;BME280_temperature;BME280_humidity;BME280_pressure;Samples;Min_cycle;Max_cycle;Signal;HPM_P1;HPM_P2
2022/09/07 00:00:30;;;;;;;10.63;7.10;;;22.30;98.00;;;;;;5119098;27;20039;-68
2022/09/07 00:02:56;;;;;;;11.13;6.53;;;22.20;98.20;;;;;;5119242;28;20047;-68
2022/09/07 00:05:22;;;;;;;10.95;6.32;;;22.20;98.10;;;;;;5119020;28;20036;-68
2022/09/07 00:07:48;;;;;;;10.93;6.47;;;22.10;98.50;;;;;;5118915;28;20050;-68
2022/09/07 00:10:13;;;;;;;7.78;5.95;;;22.10;98.60;;;;;;5118800;28;20318;-68
2022/09/07 00:12:39;;;;;;;10.63;7.13;;;22.00;98.40;;;;;;5119092;28;20325;-68
2022/09/07 00:15:10;;;;;;;12.85;7.10;;;22.00;98.80;;;;;;5118868;28;20039;-68
2022/09/07 00:17:36;;;;;;;7.88;6.45;;;21.90;98.70;;;;;;5118807;28;20047;-68
2022/09/07 00:20:04;;;;;;;7.55;6.57;;;21.90;98.70;;;;;;5118889;28;20036;-68
2022/09/07 00:22:31;;;;;;;8.68;7.00;;;22.10;98.50;;;;;;5118838;28;20382;-68
2022/09/07 00:24:56;;;;;;;11.48;6.57;;;22.10;98.50;;;;;;5117974;28;20042;-68
2022/09/07 00:27:22;;;;;;;9.02;6.55;;;21.90;98.50;;;;;;5118696;28;20111;-68
2022/09/07 00:29:48;;;;;;;10.65;7.65;;;21.90;98.50;;;;;;5117675;28;20500;-67
2022/09/07 00:32:13;;;;;;;11.32;7.97;;;21.90;98.30;;;;;;5118395;28;20047;-68
2022/09/07 00:34:39;;;;;;;8.10;7.05;;;22.00;98.00;;;;;;5118519;28;20036;-68
2022/09/07 00:37:05;;;;;;;9.40;7.80;;;21.90;98.30;;;;;;5118422;28;20039;-68
2022/09/07 00:39:30;;;;;;;14.25;7.97;;;21.70;98.40;;;;;;5117920;28;20336;-68
2022/09/07 00:41:56;;;;;;;10.27;8.02;;;21.80;98.10;;;;;;5118260;28;20042;-68
2022/09/07 00:45:02;;;;;;;11.82;8.20;;;21.80;98.20;;;;;;5118391;28;20052;-68
2022/09/07 00:47:36;;;;;;;13.05;7.93;;;21.90;98.00;;;;;;5118305;28;20212;-68
2022/09/07 00:50:09;;;;;;;14.73;8.07;;;21.90;98.20;;;;;;5118023;28;20042;-68
2022/09/07 00:52:36;;;;;;;14.70;7.50;;;21.70;97.80;;;;;;5118203;28;20035;-68
2022/09/07 00:55:08;;;;;;;13.15;8.27;;;21.50;98.00;;;;;;5116806;28;20058;-68
2022/09/07 00:57:35;;;;;;;10.05;7.68;;;21.50;98.00;;;;;;5118016;28;20044;-68
2022/09/07 01:00:01;;;;;;;13.38;7.75;;;21.50;98.00;;;;;;5117846;28;20428;-68
2022/09/07 01:02:27;;;;;;;9.07;7.00;;;21.50;98.10;;;;;;5117752;28;20050;-68
2022/09/07 01:05:02;;;;;;;9.68;7.63;;;21.50;98.10;;;;;;5117882;28;20335;-68
2022/09/07 01:07:28;;;;;;;17.55;7.88;;;21.60;98.00;;;;;;5118132;28;20137;-68
2022/09/07 01:09:55;;;;;;;12.00;8.02;;;21.70;98.20;;;;;;5117678;28;20122;-68
2022/09/07 01:12:21;;;;;;;11.00;7.97;;;21.70;98.30;;;;;;5117973;28;20342;-68
2022/09/07 01:14:50;;;;;;;13.23;8.23;;;21.60;98.70;;;;;;5117723;28;20043;-68
2022/09/07 01:17:38;;;;;;;10.10;7.82;;;21.60;98.70;;;;;;5116818;28;20051;-68
2022/09/07 01:20:22;;;;;;;11.90;7.70;;;21.60;98.70;;;;;;5117563;28;20046;-67
2022/09/07 01:23:15;;;;;;;12.10;8.63;;;21.20;98.50;;;;;;5117256;28;20036;-67
2022/09/07 01:26:09;;;;;;;13.23;8.93;;;20.80;99.20;;;;;;5117729;28;20110;-67
2022/09/07 01:28:35;;;;;;;15.43;9.77;;;20.60;99.50;;;;;;5117421;28;20035;-68
2022/09/07 01:31:10;;;;;;;14.70;8.65;;;20.70;99.80;;;;;;5117701;28;20111;-68
2022/09/07 01:33:58;;;;;;;16.63;9.93;;;20.50;99.60;;;;;;5116334;28;20089;-69
2022/09/07 01:36:49;;;;;;;15.05;10.73;;;20.30;99.90;;;;;;5117019;28;20032;-68
2022/09/07 01:39:16;;;;;;;19.58;12.93;;;20.50;99.90;;;;;;5117202;28;20051;-68
2022/09/07 01:41:57;;;;;;;16.38;11.90;;;20.30;99.90;;;;;;5117229;28;20131;-68
2022/09/07 01:44:29;;;;;;;18.40;12.80;;;20.30;99.90;;;;;;5117264;28;20050;-68
2022/09/07 01:47:13;;;;;;;21.13;13.32;;;20.20;99.90;;;;;;5117151;28;20452;-68
2022/09/07 01:49:57;;;;;;;21.08;14.65;;;20.10;99.90;;;;;;5117355;28;20363;-68
2022/09/07 01:52:52;;;;;;;20.42;11.80;;;20.20;99.90;;;;;;5116219;28;20046;-68
2022/09/07 01:55:32;;;;;;;24.92;14.98;;;20.30;99.90;;;;;;5117151;28;20047;-68
2022/09/07 01:58:07;;;;;;;18.52;12.82;;;20.50;99.90;;;;;;5117139;28;20054;-68
2022/09/07 02:00:37;;;;;;;19.20;11.57;;;20.50;99.90;;;;;;5117029;28;20035;-67
2022/09/07 02:03:12;;;;;;;18.65;13.13;;;20.60;99.90;;;;;;5116219;28;20389;-68
2022/09/07 02:06:05;;;;;;;28.42;17.35;;;20.40;99.90;;;;;;5117142;28;20031;-67
2022/09/07 02:08:47;;;;;;;25.50;15.40;;;20.40;99.90;;;;;;5117076;28;20306;-68
2022/09/07 02:11:37;;;;;;;15.27;11.65;;;20.10;99.90;;;;;;5116874;28;20110;-68
2022/09/07 02:14:30;;;;;;;19.10;11.13;;;20.00;99.90;;;;;;5117167;28;20032;-68
2022/09/07 02:17:08;;;;;;;20.52;11.52;;;19.80;99.90;;;;;;5113797;28;20055;-68
2022/09/07 02:19:50;;;;;;;18.35;12.50;;;19.90;99.90;;;;;;5116884;28;20047;-68
2022/09/07 02:22:23;;;;;;;13.88;10.05;;;19.90;99.90;;;;;;5116859;28;20036;-68
2022/09/07 02:24:55;;;;;;;13.88;9.07;;;19.90;99.90;;;;;;5116517;28;20067;-68
2022/09/07 02:27:27;;;;;;;14.95;9.50;;;20.20;99.90;;;;;;5117011;28;20115;-68
2022/09/07 02:29:53;;;;;;;12.02;8.85;;;20.30;99.90;;;;;;5116637;28;20450;-68
2022/09/07 02:32:19;;;;;;;14.48;8.85;;;20.50;99.90;;;;;;5116915;28;20083;-68
2022/09/07 02:34:45;;;;;;;11.55;8.02;;;20.60;99.90;;;;;;5116710;28;20079;-68
2022/09/07 02:37:12;;;;;;;14.80;9.52;;;20.60;99.90;;;;;;5116966;28;20173;-68
2022/09/07 02:39:38;;;;;;;13.38;8.40;;;20.60;99.90;;;;;;5116394;28;20059;-68
2022/09/07 02:42:04;;;;;;;13.50;9.02;;;20.60;99.90;;;;;;5116742;28;20116;-68
2022/09/07 02:44:33;;;;;;;18.08;9.90;;;20.70;99.90;;;;;;5116802;28;20042;-68
2022/09/07 02:47:50;;;;;;;10.50;6.88;;;20.60;99.90;;;;;;5116659;28;20047;-68
2022/09/07 02:50:46;;;;;;;9.88;7.32;;;20.50;99.90;;;;;;5057975;28;20052;-68
2022/09/07 02:53:33;;;;;;;10.50;6.88;;;20.60;99.90;;;;;;5057269;28;20083;-67
2022/09/07 02:56:15;;;;;;;13.65;7.78;;;20.60;99.90;;;;;;5109103;28;20043;-68
2022/09/07 02:59:03;;;;;;;10.45;7.63;;;20.70;99.90;;;;;;5120522;28;20044;-68
2022/09/07 03:01:47;;;;;;;9.57;6.32;;;20.80;99.90;;;;;;5120227;28;20448;-68
2022/09/07 03:04:37;;;;;;;11.38;6.63;;;20.80;99.90;;;;;;5120453;28;20041;-68
2022/09/07 03:07:18;;;;;;;10.52;6.35;;;20.60;99.90;;;;;;5120288;28;20032;-68
2022/09/07 03:09:48;;;;;;;8.95;6.40;;;20.30;99.90;;;;;;5119912;28;20122;-68
2022/09/07 03:12:14;;;;;;;9.02;7.28;;;20.40;99.90;;;;;;5120561;28;20043;-68
2022/09/07 03:14:41;;;;;;;7.75;5.82;;;20.30;99.90;;;;;;5119983;28;20031;-68
2022/09/07 03:17:07;;;;;;;10.98;7.60;;;20.20;99.90;;;;;;5120235;28;20043;-67
2022/09/07 03:19:33;;;;;;;8.25;5.85;;;20.40;99.90;;;;;;5119823;28;20035;-67
2022/09/07 03:21:59;;;;;;;8.02;5.78;;;20.10;99.90;;;;;;5120031;28;20035;-67
2022/09/07 03:24:24;;;;;;;9.73;6.18;;;20.00;99.90;;;;;;5119641;28;20118;-67
2022/09/07 03:26:50;;;;;;;9.30;6.15;;;20.10;99.90;;;;;;5119921;28;20035;-67
2022/09/07 03:29:17;;;;;;;9.95;6.40;;;20.20;99.90;;;;;;5119958;28;20336;-67
2022/09/07 03:31:43;;;;;;;8.45;5.90;;;20.20;99.90;;;;;;5119746;28;20040;-68
2022/09/07 03:34:09;;;;;;;9.18;6.47;;;20.40;99.90;;;;;;5119830;28;20176;-68
2022/09/07 03:36:35;;;;;;;8.25;6.13;;;20.30;99.90;;;;;;5119497;28;20027;-68
2022/09/07 03:39:01;;;;;;;7.70;5.60;;;20.50;99.90;;;;;;5119184;28;20055;-67
2022/09/07 03:41:27;;;;;;;11.70;6.63;;;20.60;99.90;;;;;;5119733;28;20426;-67
2022/09/07 03:43:53;;;;;;;6.75;5.68;;;20.60;99.90;;;;;;5119610;28;20039;-67
2022/09/07 03:46:19;;;;;;;10.90;6.05;;;20.60;99.90;;;;;;5119490;28;20032;-67
2022/09/07 03:48:46;;;;;;;7.65;6.13;;;20.60;99.90;;;;;;5119164;28;20408;-67
2022/09/07 03:51:15;;;;;;;9.32;7.07;;;20.60;99.90;;;;;;5119260;27;20073;-68
2022/09/07 03:53:43;;;;;;;8.90;6.05;;;20.50;99.90;;;;;;5118729;28;20035;-67
2022/09/07 03:56:18;;;;;;;10.85;7.10;;;20.40;99.90;;;;;;5119334;28;20054;-67
2022/09/07 03:58:46;;;;;;;11.73;7.55;;;20.30;99.90;;;;;;5119067;28;20096;-67
2022/09/07 04:01:17;;;;;;;11.75;8.57;;;20.20;99.90;;;;;;5118329;28;20421;-67
2022/09/07 04:03:44;;;;;;;12.50;7.60;;;20.20;99.90;;;;;;5118011;28;20042;-68
2022/09/07 04:06:10;;;;;;;8.90;7.05;;;20.10;99.90;;;;;;5119040;28;20039;-67
2022/09/07 04:08:37;;;;;;;8.75;7.25;;;20.10;99.90;;;;;;5119120;28;20044;-67
2022/09/07 04:11:05;;;;;;;11.30;8.32;;;20.20;99.90;;;;;;5118959;28;20032;-67
2022/09/07 04:13:33;;;;;;;13.05;7.60;;;20.20;99.90;;;;;;5119189;28;20045;-67
2022/09/07 04:15:59;;;;;;;8.57;7.05;;;20.20;99.90;;;;;;5118762;28;20408;-68
2022/09/07 04:18:25;;;;;;;9.55;7.70;;;20.20;99.90;;;;;;5118983;28;20071;-68
2022/09/07 04:20:51;;;;;;;9.98;7.55;;;20.20;99.90;;;;;;5118987;28;20042;-67
2022/09/07 04:23:17;;;;;;;12.52;9.07;;;20.20;99.90;;;;;;5118457;28;20421;-68
2022/09/07 04:25:50;;;;;;;11.77;7.90;;;20.10;99.90;;;;;;5118673;28;20031;-68
2022/09/07 04:28:17;;;;;;;10.85;8.73;;;20.10;99.90;;;;;;5118762;28;20036;-68
2022/09/07 04:30:43;;;;;;;8.73;7.82;;;20.10;99.90;;;;;;5118787;28;20043;-68
2022/09/07 04:33:09;;;;;;;13.20;9.57;;;20.10;99.90;;;;;;5117458;28;20096;-68
2022/09/07 04:35:36;;;;;;;14.88;10.73;;;20.00;99.90;;;;;;5118712;28;20035;-68
2022/09/07 04:38:01;;;;;;;13.55;9.02;;;20.20;99.90;;;;;;5118146;28;20440;-68
2022/09/07 04:40:27;;;;;;;10.50;8.93;;;20.20;99.90;;;;;;5117613;28;20043;-68
2022/09/07 04:42:53;;;;;;;13.63;9.40;;;20.20;99.90;;;;;;5118178;28;20049;-68
2022/09/07 04:45:18;;;;;;;12.45;9.23;;;20.20;99.90;;;;;;5118249;28;20031;-68
2022/09/07 04:47:48;;;;;;;12.98;8.65;;;20.00;99.90;;;;;;5118110;28;20039;-68
2022/09/07 04:50:17;;;;;;;13.95;9.65;;;19.80;99.90;;;;;;5118270;28;20039;-68
2022/09/07 04:52:43;;;;;;;16.98;11.02;;;19.90;99.90;;;;;;5118389;28;20035;-68
2022/09/07 04:55:10;;;;;;;14.38;10.82;;;20.00;99.90;;;;;;5117863;28;20047;-68
2022/09/07 04:57:36;;;;;;;16.42;12.38;;;20.00;99.90;;;;;;5118081;28;20324;-68
2022/09/07 05:00:07;;;;;;;19.52;12.52;;;20.00;99.90;;;;;;5117701;28;20432;-68
2022/09/07 05:02:32;;;;;;;17.23;11.90;;;19.90;99.90;;;;;;5118209;28;20040;-68
2022/09/07 05:04:58;;;;;;;18.60;12.18;;;20.10;99.90;;;;;;5117707;28;20062;-68
2022/09/07 05:07:24;;;;;;;15.02;12.52;;;20.10;99.90;;;;;;5117697;28;20043;-68
2022/09/07 05:09:50;;;;;;;15.98;11.02;;;20.20;99.90;;;;;;5118027;28;20035;-68
2022/09/07 05:12:15;;;;;;;14.95;11.38;;;20.20;99.90;;;;;;5117576;28;20424;-68
2022/09/07 05:14:41;;;;;;;14.20;10.88;;;20.20;99.90;;;;;;5117594;28;20096;-68
2022/09/07 05:17:07;;;;;;;12.70;10.80;;;20.10;99.90;;;;;;5117422;28;20031;-68
2022/09/07 05:19:33;;;;;;;14.18;11.35;;;20.10;99.90;;;;;;5117731;28;20039;-68
2022/09/07 05:21:59;;;;;;;12.90;10.80;;;20.20;99.90;;;;;;5116542;28;20039;-68
2022/09/07 05:24:28;;;;;;;13.93;11.45;;;20.20;99.90;;;;;;5117075;28;20028;-68
2022/09/07 05:26:53;;;;;;;16.40;12.13;;;20.20;99.90;;;;;;5117500;28;20031;-68
2022/09/07 05:29:20;;;;;;;13.68;11.57;;;20.20;99.90;;;;;;5117422;28;20088;-68
2022/09/07 05:31:47;;;;;;;17.77;13.00;;;20.10;99.90;;;;;;5117695;28;20091;-68
2022/09/07 05:34:14;;;;;;;17.00;13.35;;;20.10;99.90;;;;;;5117286;28;20043;-68
2022/09/07 05:36:40;;;;;;;19.33;14.80;;;20.10;99.90;;;;;;5117395;28;20039;-69
2022/09/07 05:39:07;;;;;;;16.20;14.27;;;20.10;99.90;;;;;;5116893;28;20451;-68
2022/09/07 05:41:34;;;;;;;18.23;14.60;;;20.10;99.90;;;;;;5117319;28;20081;-68
2022/09/07 05:44:00;;;;;;;23.50;18.05;;;20.10;99.90;;;;;;5116078;28;20071;-68
2022/09/07 05:46:25;;;;;;;22.90;16.63;;;20.10;99.90;;;;;;5117419;28;20088;-68
2022/09/07 05:48:51;;;;;;;22.90;16.55;;;20.00;99.90;;;;;;5117325;28;20031;-68
2022/09/07 05:51:17;;;;;;;26.60;16.95;;;20.00;99.90;;;;;;5117448;28;20030;-68
2022/09/07 05:53:46;;;;;;;24.58;17.95;;;19.90;99.90;;;;;;5116943;28;20404;-68
2022/09/07 05:56:12;;;;;;;24.33;19.23;;;19.80;99.90;;;;;;5116251;28;20035;-68
2022/09/07 05:58:37;;;;;;;31.63;21.95;;;19.80;99.90;;;;;;5117033;28;20103;-68
2022/09/07 06:01:05;;;;;;;26.00;19.63;;;19.90;99.90;;;;;;5116971;28;20429;-68
2022/09/07 06:03:33;;;;;;;22.83;18.88;;;19.70;99.90;;;;;;5117070;28;20116;-68
2022/09/07 06:06:04;;;;;;;24.17;19.08;;;19.80;99.90;;;;;;5117210;28;20036;-68
2022/09/07 06:08:31;;;;;;;26.98;17.88;;;19.90;99.90;;;;;;5116866;28;20106;-68
2022/09/07 06:10:57;;;;;;;26.73;21.30;;;20.10;99.90;;;;;;5116909;28;20067;-68
2022/09/07 06:13:23;;;;;;;26.58;19.58;;;20.00;99.90;;;;;;5117126;28;20114;-68
2022/09/07 06:15:48;;;;;;;21.73;17.48;;;20.10;99.90;;;;;;5150563;27;20114;-68
2022/09/07 06:18:14;;;;;;;22.88;18.63;;;20.00;99.90;;;;;;5115760;28;20032;-68
2022/09/07 06:20:40;;;;;;;26.42;19.77;;;20.10;99.90;;;;;;5116929;28;20044;-68
2022/09/07 06:23:06;;;;;;;25.95;18.50;;;20.20;99.90;;;;;;5117011;28;20040;-68
2022/09/07 06:25:32;;;;;;;25.58;17.58;;;20.40;99.90;;;;;;5120881;28;20031;-68
2022/09/07 06:27:58;;;;;;;24.00;20.08;;;20.40;99.90;;;;;;5121108;28;20047;-68
2022/09/07 06:30:24;;;;;;;31.40;21.27;;;20.40;99.90;;;;;;5121124;28;20048;-68
2022/09/07 06:32:50;;;;;;;24.77;19.67;;;20.50;99.90;;;;;;5120688;28;20428;-68
2022/09/07 06:35:16;;;;;;;24.33;20.38;;;20.40;99.90;;;;;;5119680;28;20050;-68
2022/09/07 06:37:43;;;;;;;29.35;21.42;;;20.40;99.90;;;;;;5120683;28;20082;-68
2022/09/07 06:40:10;;;;;;;30.73;22.42;;;20.50;99.90;;;;;;5119274;28;20051;-68
2022/09/07 06:42:36;;;;;;;26.95;21.20;;;20.50;99.90;;;;;;5120985;28;20377;-68
2022/09/07 06:45:02;;;;;;;27.63;21.50;;;20.50;99.90;;;;;;5120718;28;20043;-68
2022/09/07 06:47:28;;;;;;;30.95;23.10;;;20.50;99.90;;;;;;5120734;28;20037;-68
2022/09/07 06:49:54;;;;;;;25.95;21.15;;;20.60;99.90;;;;;;5120889;28;20036;-68
2022/09/07 06:52:20;;;;;;;26.42;20.85;;;20.50;99.90;;;;;;5120420;28;20046;-68
2022/09/07 06:54:45;;;;;;;27.45;19.73;;;20.40;99.90;;;;;;5119038;28;20039;-68
2022/09/07 06:57:11;;;;;;;31.15;22.13;;;20.50;99.90;;;;;;5120318;28;20088;-68
2022/09/07 06:59:37;;;;;;;21.35;18.17;;;20.50;99.90;;;;;;5120408;28;20463;-68
2022/09/07 07:02:04;;;;;;;30.20;18.23;;;20.50;99.90;;;;;;5120287;28;20309;-68
2022/09/07 07:04:30;;;;;;;26.08;20.35;;;20.60;99.90;;;;;;5120494;28;20040;-68
2022/09/07 07:06:55;;;;;;;22.58;17.25;;;20.60;99.90;;;;;;5120129;28;20046;-68
2022/09/07 07:09:21;;;;;;;23.77;18.13;;;20.50;99.90;;;;;;5120059;28;20040;-68
2022/09/07 07:11:47;;;;;;;20.67;16.17;;;20.60;99.90;;;;;;5120253;28;20126;-68
2022/09/07 07:14:16;;;;;;;27.30;19.00;;;20.60;99.90;;;;;;5120058;28;20063;-68
2022/09/07 07:16:42;;;;;;;22.05;17.55;;;20.60;99.90;;;;;;5119937;28;20541;-68
2022/09/07 07:19:08;;;;;;;22.45;18.75;;;20.70;99.90;;;;;;5119834;28;20464;-68
2022/09/07 07:21:34;;;;;;;23.90;18.05;;;20.80;99.90;;;;;;5120071;28;20101;-68
2022/09/07 07:23:59;;;;;;;22.17;17.08;;;20.80;99.90;;;;;;5119514;28;20040;-68
2022/09/07 07:26:25;;;;;;;20.67;16.15;;;20.90;99.90;;;;;;5120080;28;20039;-68
2022/09/07 07:28:53;;;;;;;24.42;18.48;;;20.90;99.90;;;;;;5119689;27;20395;-68
2022/09/07 07:31:22;;;;;;;28.48;21.33;;;20.90;99.90;;;;;;5119675;28;20444;-68
2022/09/07 07:33:48;;;;;;;26.98;20.50;;;20.80;99.90;;;;;;5118709;28;20032;-68
2022/09/07 07:36:22;;;;;;;21.50;17.00;;;20.60;99.90;;;;;;5118649;28;20028;-68
2022/09/07 07:38:49;;;;;;;22.67;18.60;;;20.60;99.90;;;;;;5118335;28;20060;-68
2022/09/07 07:41:17;;;;;;;21.08;17.17;;;20.70;99.90;;;;;;5119655;28;20131;-68
2022/09/07 07:43:43;;;;;;;21.63;17.67;;;20.70;99.90;;;;;;5119695;28;20032;-68
2022/09/07 07:46:12;;;;;;;23.38;18.20;;;20.80;99.90;;;;;;5118305;28;20481;-68
2022/09/07 07:48:38;;;;;;;26.25;20.45;;;20.90;99.90;;;;;;5119468;28;20040;-68
2022/09/07 07:51:06;;;;;;;25.30;19.48;;;20.80;99.90;;;;;;5119386;28;20439;-68
2022/09/07 07:53:35;;;;;;;24.35;17.73;;;20.90;99.90;;;;;;5119174;28;20040;-68
2022/09/07 07:56:02;;;;;;;21.85;18.10;;;20.90;99.90;;;;;;5118352;28;20363;-68
2022/09/07 07:58:29;;;;;;;25.73;19.42;;;20.90;99.90;;;;;;5119248;28;20126;-68
2022/09/07 08:01:04;;;;;;;22.17;17.88;;;20.90;99.90;;;;;;5118347;28;20039;-68
2022/09/07 08:03:35;;;;;;;27.83;21.65;;;20.90;99.90;;;;;;5119324;28;20050;-68
2022/09/07 08:06:12;;;;;;;24.73;20.10;;;20.90;99.90;;;;;;5119328;28;20035;-68
2022/09/07 08:08:39;;;;;;;22.45;18.95;;;20.80;99.90;;;;;;5119206;28;20063;-68
2022/09/07 08:11:07;;;;;;;22.80;17.98;;;20.80;99.90;;;;;;5119241;28;20035;-68
2022/09/07 08:13:37;;;;;;;25.83;20.83;;;21.00;99.90;;;;;;5118811;28;20036;-68
2022/09/07 08:16:04;;;;;;;33.17;25.10;;;21.00;99.90;;;;;;5118800;28;20051;-68
2022/09/07 08:18:31;;;;;;;28.52;21.38;;;21.00;99.90;;;;;;5118772;28;20173;-68
2022/09/07 08:21:02;;;;;;;26.48;21.20;;;21.00;99.90;;;;;;5118823;28;20092;-68
2022/09/07 08:23:30;;;;;;;27.42;22.50;;;21.20;99.90;;;;;;5118476;28;20389;-68
2022/09/07 08:25:59;;;;;;;33.08;25.35;;;21.20;99.90;;;;;;5118842;28;20043;-68
2022/09/07 08:28:27;;;;;;;28.10;23.17;;;21.20;99.90;;;;;;5118921;28;20031;-68
2022/09/07 08:30:53;;;;;;;27.13;23.25;;;21.10;99.90;;;;;;5118476;28;20448;-68
2022/09/07 08:33:19;;;;;;;29.17;23.48;;;21.30;99.90;;;;;;5117840;28;20044;-68
2022/09/07 08:35:54;;;;;;;32.53;24.25;;;21.30;99.90;;;;;;5118460;28;20500;-68
2022/09/07 08:38:20;;;;;;;29.33;23.70;;;21.10;99.90;;;;;;5117419;28;20109;-68
2022/09/07 08:40:46;;;;;;;35.55;27.48;;;21.00;99.90;;;;;;5118490;28;20083;-68
2022/09/07 08:43:52;;;;;;;28.13;23.33;;;21.20;99.90;;;;;;5118397;28;20042;-68
2022/09/07 08:46:55;;;;;;;32.53;23.53;;;21.20;99.90;;;;;;5118284;28;20332;-68
2022/09/07 08:49:41;;;;;;;30.55;24.92;;;21.30;99.90;;;;;;5075884;27;20047;-68
2022/09/07 08:52:24;;;;;;;32.28;24.05;;;21.30;99.90;;;;;;5118451;28;20039;-68
2022/09/07 08:55:10;;;;;;;31.27;25.08;;;21.40;99.90;;;;;;5118020;28;20044;-68
2022/09/07 08:57:40;;;;;;;26.83;23.02;;;21.50;99.90;;;;;;5118208;28;20039;-68
2022/09/07 09:00:15;;;;;;;28.48;23.13;;;21.60;99.90;;;;;;5118042;28;20499;-68
2022/09/07 09:02:41;;;;;;;28.08;22.80;;;21.70;99.90;;;;;;5117903;28;20096;-68
2022/09/07 09:05:21;;;;;;;34.50;23.77;;;21.70;99.90;;;;;;5118317;28;20421;-68
2022/09/07 09:08:17;;;;;;;27.67;24.10;;;21.60;99.90;;;;;;5118153;28;20122;-68
2022/09/07 09:10:45;;;;;;;28.65;23.20;;;21.80;99.90;;;;;;5117845;28;20336;-68
2022/09/07 09:13:22;;;;;;;31.15;24.45;;;21.90;99.90;;;;;;5117895;28;20126;-68
2022/09/07 09:15:51;;;;;;;28.10;23.23;;;22.10;99.90;;;;;;5117894;28;20046;-68
2022/09/07 09:18:26;;;;;;;27.38;23.63;;;22.10;99.90;;;;;;5116937;28;20397;-68
2022/09/07 09:20:57;;;;;;;36.22;27.60;;;22.20;99.90;;;;;;5117745;28;20043;-68
2022/09/07 09:23:26;;;;;;;26.02;21.58;;;22.30;99.90;;;;;;5117318;28;20067;-68
2022/09/07 09:25:55;;;;;;;26.40;21.08;;;22.40;99.90;;;;;;5117809;28;20036;-68
2022/09/07 09:28:22;;;;;;;26.30;20.77;;;22.30;99.90;;;;;;5117501;28;20042;-68
2022/09/07 09:30:47;;;;;;;23.45;19.50;;;22.50;99.90;;;;;;5116368;28;20411;-68
2022/09/07 09:33:13;;;;;;;26.33;20.73;;;22.70;99.90;;;;;;5117340;28;20076;-69
2022/09/07 09:35:40;;;;;;;24.15;20.15;;;23.00;99.90;;;;;;5117341;28;20039;-69
2022/09/07 09:38:31;;;;;;;27.08;20.83;;;23.00;99.90;;;;;;5117367;28;20040;-68
2022/09/07 09:41:15;;;;;;;25.95;20.77;;;23.00;99.90;;;;;;5116129;28;20464;-68
2022/09/07 09:43:50;;;;;;;24.92;19.83;;;23.00;99.90;;;;;;5116376;28;20321;-68
2022/09/07 09:46:30;;;;;;;27.20;19.40;;;22.80;99.90;;;;;;5117124;28;20412;-68
2022/09/07 09:49:27;;;;;;;22.40;18.58;;;22.90;99.90;;;;;;5117282;28;20039;-68
2022/09/07 09:51:55;;;;;;;25.58;18.65;;;22.90;99.90;;;;;;5117168;28;20101;-68
2022/09/07 09:54:36;;;;;;;23.20;18.30;;;22.90;99.90;;;;;;5116622;28;20079;-68
2022/09/07 09:57:02;;;;;;;23.63;18.75;;;22.90;99.90;;;;;;5116262;28;20333;-68
2022/09/07 09:59:31;;;;;;;26.60;19.23;;;23.00;99.90;;;;;;5116215;28;20043;-68
2022/09/07 10:01:57;;;;;;;21.20;17.38;;;23.20;99.90;;;;;;5117085;28;20114;-69
2022/09/07 10:04:22;;;;;;;18.95;15.30;;;23.40;99.90;;;;;;5116272;28;20045;-68
2022/09/07 10:07:20;;;;;;;17.48;14.82;;;23.30;99.90;;;;;;5115839;28;20469;-69
2022/09/07 10:09:54;;;;;;;14.80;12.55;;;23.30;99.90;;;;;;5109351;28;20055;-68
2022/09/07 10:12:38;;;;;;;14.63;12.02;;;23.00;99.90;;;;;;5116943;28;20035;-68
2022/09/07 10:15:06;;;;;;;14.52;11.38;;;23.10;99.90;;;;;;5116963;28;20046;-69
2022/09/07 10:17:40;;;;;;;12.88;11.02;;;22.70;99.90;;;;;;5117286;28;20130;-68
2022/09/07 10:20:14;;;;;;;15.35;11.75;;;22.80;99.90;;;;;;5116667;28;20473;-68
2022/09/07 10:22:43;;;;;;;14.95;12.38;;;22.70;99.90;;;;;;5117067;28;20180;-68
2022/09/07 10:25:31;;;;;;;12.70;10.85;;;22.60;99.90;;;;;;5116281;28;20428;-68
2022/09/07 10:28:01;;;;;;;14.00;11.90;;;23.10;99.90;;;;;;5116955;28;20043;-69
2022/09/07 10:30:37;;;;;;;10.85;9.75;;;23.50;99.90;;;;;;5116953;28;20402;-69
2022/09/07 10:33:17;;;;;;;;;;;23.70;99.90;;;;;;5117270;28;20432;-68
2022/09/07 10:35:52;;;;;;;9.63;8.60;;;23.70;99.90;;;;;;5116727;28;19915;-69
2022/09/07 10:38:21;;;;;;;11.50;8.02;;;23.40;99.90;;;;;;5116612;28;20056;-68
2022/09/07 10:41:03;;;;;;;11.95;7.35;;;23.70;99.90;;;;;;5116464;28;20112;-69
2022/09/07 10:43:28;;;;;;;10.25;7.75;;;24.40;99.90;;;;;;5116979;28;20115;-68
2022/09/07 10:46:26;;;;;;;11.50;8.45;;;24.60;99.90;;;;;;5149855;27;20115;-68
2022/09/07 10:49:06;;;;;;;12.38;8.88;;;24.60;99.90;;;;;;5111564;28;20314;-68
2022/09/07 10:52:02;;;;;;;8.00;6.68;;;24.60;99.90;;;;;;5116549;28;20050;-68
2022/09/07 10:54:34;;;;;;;9.63;7.47;;;24.80;99.90;;;;;;5112962;28;20040;-68
2022/09/07 10:57:28;;;;;;;9.32;6.78;;;24.80;99.90;;;;;;5116767;28;20115;-68
2022/09/07 11:00:13;;;;;;;8.50;7.00;;;25.00;99.90;;;;;;5116423;28;20040;-68
2022/09/07 11:02:51;;;;;;;9.35;7.43;;;24.80;99.90;;;;;;5116562;28;20118;-68
2022/09/07 11:06:04;;;;;;;7.93;6.80;;;24.70;99.90;;;;;;5116407;28;20043;-68
2022/09/07 11:08:39;;;;;;;7.80;6.60;;;24.60;99.90;;;;;;5061197;28;20312;-68
2022/09/07 11:11:11;;;;;;;8.82;5.95;;;24.90;99.90;;;;;;5120421;28;20043;-68
2022/09/07 11:13:40;;;;;;;5.53;5.03;;;24.90;99.90;;;;;;5120318;28;20040;-69
2022/09/07 11:16:27;;;;;;;6.43;5.10;;;25.00;99.90;;;;;;5120254;28;20051;-69
2022/09/07 11:19:00;;;;;;;9.70;5.75;;;25.10;99.90;;;;;;5119023;28;20051;-68
2022/09/07 11:21:46;;;;;;;8.85;6.45;;;24.70;99.90;;;;;;5119924;28;20036;-68
2022/09/07 11:24:32;;;;;;;8.30;5.82;;;24.60;99.90;;;;;;5119398;28;20040;-69
2022/09/07 11:27:06;;;;;;;6.47;5.10;;;24.80;99.90;;;;;;5119931;28;20122;-68
2022/09/07 11:29:58;;;;;;;8.13;4.32;;;25.20;99.90;;;;;;5118720;28;20054;-69
2022/09/07 11:32:27;;;;;;;8.32;5.13;;;25.50;99.90;;;;;;5120063;28;20043;-69
2022/09/07 11:35:11;;;;;;;6.97;5.03;;;25.90;99.90;;;;;;5119633;28;20417;-69
2022/09/07 11:37:58;;;;;;;5.72;3.95;;;26.50;99.90;;;;;;5119777;28;20040;-69
2022/09/07 11:40:56;;;;;;;5.57;4.13;;;27.00;99.90;;;;;;5119724;28;20048;-69
2022/09/07 11:43:27;;;;;;;5.03;3.80;;;27.10;99.90;;;;;;5119437;27;20432;-68
2022/09/07 11:46:03;;;;;;;5.65;4.95;;;26.70;99.90;;;;;;5119805;28;20302;-69
2022/09/07 11:48:41;;;;;;;3.80;3.25;;;26.30;99.90;;;;;;5119409;28;20039;-69
2022/09/07 11:51:41;;;;;;;5.10;3.45;;;26.50;99.90;;;;;;5119256;28;20036;-69
2022/09/07 11:54:27;;;;;;;2.97;2.67;;;26.70;99.80;;;;;;5093465;27;20126;-69
2022/09/07 11:57:19;;;;;;;5.22;3.17;;;26.60;99.90;;;;;;5119285;28;20043;-68
2022/09/07 12:00:11;;;;;;;2.83;2.13;;;26.20;99.50;;;;;;5119185;28;20128;-69
2022/09/07 12:03:06;;;;;;;3.05;2.40;;;26.40;99.90;;;;;;5119164;28;20455;-69
2022/09/07 12:05:58;;;;;;;4.93;2.85;;;26.70;99.20;;;;;;5119017;28;20035;-69
2022/09/07 12:08:36;;;;;;;4.43;2.60;;;25.80;99.10;;;;;;5119364;28;20040;-69
2022/09/07 12:11:09;;;;;;;3.72;1.75;;;25.50;99.30;;;;;;5152378;27;20047;-69
2022/09/07 12:13:53;;;;;;;1.90;1.67;;;25.40;99.60;;;;;;5152403;27;20046;-69
2022/09/07 12:16:35;;;;;;;2.25;2.00;;;25.80;99.90;;;;;;5119043;28;20100;-69
2022/09/07 12:19:16;;;;;;;3.10;1.70;;;26.10;99.90;;;;;;5118669;28;20428;-69
2022/09/07 12:21:47;;;;;;;3.17;1.55;;;26.60;99.60;;;;;;5118249;28;20036;-68
2022/09/07 12:24:31;;;;;;;3.28;1.55;;;26.60;99.20;;;;;;5118271;28;20074;-69
2022/09/07 12:26:58;;;;;;;3.83;1.70;;;26.60;99.20;;;;;;5118979;28;20046;-69
2022/09/07 12:29:26;;;;;;;2.40;1.73;;;26.60;99.00;;;;;;5118714;28;20039;-69
2022/09/07 12:31:54;;;;;;;1.90;1.17;;;26.90;99.40;;;;;;5118667;28;20063;-69
2022/09/07 12:34:53;;;;;;;2.95;1.83;;;27.00;98.80;;;;;;5118824;28;20046;-69
2022/09/07 12:37:37;;;;;;;2.38;1.60;;;27.00;98.70;;;;;;5118278;28;20054;-69
2022/09/07 12:40:27;;;;;;;3.55;1.60;;;26.50;99.10;;;;;;5118163;28;20344;-69
2022/09/07 12:43:11;;;;;;;5.75;1.48;;;26.70;99.00;;;;;;5118205;28;20483;-69
2022/09/07 12:45:37;;;;;;;3.45;1.83;;;27.40;99.20;;;;;;5118425;28;20027;-69
2022/09/07 12:48:15;;;;;;;3.15;1.90;;;27.70;98.00;;;;;;5118416;28;20486;-69
2022/09/07 12:51:08;;;;;;;2.65;1.50;;;27.50;98.30;;;;;;5118261;28;20044;-69
2022/09/07 12:54:01;;;;;;;3.15;1.70;;;27.20;98.50;;;;;;5117648;28;20031;-69
2022/09/07 12:56:35;;;;;;;2.30;1.30;;;27.80;98.70;;;;;;5118339;28;20127;-69
2022/09/07 12:59:19;;;;;;;4.10;1.30;;;28.10;98.50;;;;;;5118149;28;20075;-69
2022/09/07 13:01:54;;;;;;;2.55;1.50;;;28.10;98.50;;;;;;5117961;28;20039;-69
2022/09/07 13:04:31;;;;;;;2.63;1.60;;;27.60;98.40;;;;;;5151480;27;20039;-69